Time;durP1;ratioP1;P1;durP2;ratioP2;P2;SDS_P1;SDS_P2;PMS_P1;PMS_P2;Temp;Humidity;BMP_temperature;BMP_pressure;BME280_temperature;BME280_humidity;BME280_pressure;Samples;Min_cycle;Max_cycle;Signal;HPM_P1;HPM_P2
2022/04/07 00:00:50;;;;;;;4.13;2.90;;;;;;;;;;5011842;28;20825;-71
2022/04/07 00:03:16;;;;;;;3.60;3.00;;;11.00;1.00;;;;;;4996451;28;20182;-71
2022/04/07 00:05:42;;;;;;;3.40;2.40;;;;;;;;;;4996715;28;20412;-75
2022/04/07 00:08:08;;;;;;;3.40;2.73;;;;;;;;;;4996726;28;20182;-75
2022/04/07 00:10:35;;;;;;;9.97;3.07;;;;;;;;;;4996664;28;20412;-75
2022/04/07 00:13:00;;;;;;;3.53;2.73;;;10.90;1.00;;;;;;4996030;28;20543;-75
2022/04/07 00:15:26;;;;;;;3.17;2.87;;;10.80;1.00;;;;;;4996557;28;20499;-75
2022/04/07 00:17:52;;;;;;;7.10;3.40;;;10.80;1.00;;;;;;4996563;28;20187;-75
2022/04/07 00:20:18;;;;;;;3.17;2.90;;;10.80;1.00;;;;;;4996166;28;20448;-74
2022/04/07 00:22:44;;;;;;;3.40;2.90;;;10.80;1.00;;;;;;4996745;28;20226;-75
2022/04/07 00:25:10;;;;;;;6.83;3.63;;;10.70;1.00;;;;;;4996189;28;20414;-74
2022/04/07 00:27:36;;;;;;;3.10;2.67;;;;;;;;;;4996377;28;20964;-75
2022/04/07 00:30:03;;;;;;;3.40;2.87;;;10.80;1.00;;;;;;4995942;28;20182;-74
2022/04/07 00:32:29;;;;;;;3.50;3.20;;;10.80;1.00;;;;;;4995832;28;20419;-75
2022/04/07 00:34:56;;;;;;;4.47;3.03;;;10.80;1.00;;;;;;4996140;28;20402;-74
2022/04/07 00:37:23;;;;;;;6.20;3.47;;;10.90;1.00;;;;;;4996280;28;20448;-71
2022/04/07 00:39:49;;;;;;;3.20;2.90;;;10.80;1.00;;;;;;4995772;28;20427;-71
2022/04/07 00:42:16;;;;;;;7.30;3.50;;;10.90;1.00;;;;;;4995879;28;21037;-71
2022/04/07 00:44:43;;;;;;;4.50;3.53;;;10.90;1.00;;;;;;4995926;28;20417;-71
2022/04/07 00:47:09;;;;;;;3.50;3.20;;;10.90;1.00;;;;;;4995853;28;20935;-71
2022/04/07 00:49:35;;;;;;;13.00;3.40;;;10.90;1.00;;;;;;4995485;28;20428;-71
2022/04/07 00:52:01;;;;;;;5.37;3.10;;;10.80;1.00;;;;;;4995744;28;20431;-74
2022/04/07 00:54:28;;;;;;;3.23;2.97;;;10.80;1.00;;;;;;4994813;28;20699;-75
2022/04/07 00:56:55;;;;;;;4.23;3.13;;;10.70;1.00;;;;;;4995894;28;20413;-75
2022/04/07 00:59:22;;;;;;;6.13;3.40;;;10.60;1.00;;;;;;4995850;28;20418;-75
2022/04/07 01:01:48;;;;;;;4.60;3.40;;;10.60;1.00;;;;;;4994832;28;20912;-75
2022/04/07 01:04:15;;;;;;;4.10;3.07;;;10.50;1.00;;;;;;4995605;28;20818;-75
2022/04/07 01:06:47;;;;;;;6.53;3.80;;;10.50;1.00;;;;;;4995853;28;20450;-71
2022/04/07 01:09:14;;;;;;;3.37;2.93;;;10.50;1.00;;;;;;4995219;28;20526;-72
2022/04/07 01:11:41;;;;;;;3.10;2.90;;;10.50;1.00;;;;;;4995009;28;20483;-71
2022/04/07 01:14:07;;;;;;;5.57;3.50;;;;;;;;;;5007926;28;20422;-71
2022/04/07 01:16:34;;;;;;;2.80;2.60;;;10.60;1.00;;;;;;4995343;28;20409;-71
2022/04/07 01:19:00;;;;;;;9.17;2.77;;;10.60;1.00;;;;;;4995198;28;20408;-71
2022/04/07 01:21:27;;;;;;;4.80;2.60;;;10.60;1.00;;;;;;4995585;28;20421;-74
2022/04/07 01:24:10;;;;;;;6.33;3.20;;;10.60;1.00;;;;;;4994638;28;20417;-75
2022/04/07 01:26:39;;;;;;;3.93;3.10;;;10.60;1.00;;;;;;4995045;28;20420;-75
2022/04/07 01:29:11;;;;;;;3.50;2.60;;;10.70;1.00;;;;;;4995287;28;20453;-75
2022/04/07 01:31:38;;;;;;;3.30;2.70;;;10.70;1.00;;;;;;5010075;28;20432;-75
2022/04/07 01:34:07;;;;;;;3.27;2.97;;;10.70;1.00;;;;;;4994844;28;20411;-75
2022/04/07 01:36:36;;;;;;;6.10;2.60;;;10.70;1.00;;;;;;4995283;28;21563;-71
2022/04/07 01:39:03;;;;;;;9.23;2.57;;;10.60;1.00;;;;;;4994751;28;20504;-71
2022/04/07 01:41:29;;;;;;;2.90;2.57;;;;;;;;;;4994811;28;20423;-71
2022/04/07 01:43:57;;;;;;;3.87;2.77;;;10.50;1.00;;;;;;4994348;28;20424;-71
2022/04/07 01:46:24;;;;;;;6.30;3.40;;;10.40;1.00;;;;;;4994332;28;20479;-71
2022/04/07 01:48:51;;;;;;;3.00;2.57;;;10.40;1.00;;;;;;4994505;28;20911;-71
2022/04/07 01:51:18;;;;;;;3.80;3.00;;;10.50;1.00;;;;;;4994304;28;20449;-71
2022/04/07 01:53:43;;;;;;;2.47;2.30;;;10.50;1.00;;;;;;4994608;28;20507;-75
2022/04/07 01:56:10;;;;;;;2.87;2.67;;;10.50;1.00;;;;;;4994611;28;20448;-75
2022/04/07 01:58:36;;;;;;;3.77;2.20;;;10.50;1.00;;;;;;4994342;28;20185;-75
2022/04/07 02:01:03;;;;;;;4.60;2.93;;;10.50;1.00;;;;;;4994412;28;20417;-75
2022/04/07 02:03:29;;;;;;;4.43;2.40;;;;;;;;;;4994224;28;20178;-75
2022/04/07 02:05:55;;;;;;;2.13;1.93;;;10.60;1.00;;;;;;4994319;28;20967;-75
2022/04/07 02:08:21;;;;;;;4.07;2.30;;;;;;;;;;4994335;28;20524;-75
2022/04/07 02:10:46;;;;;;;6.70;1.90;;;10.60;1.00;;;;;;4994346;28;20177;-75
2022/04/07 02:13:13;;;;;;;2.10;1.90;;;10.60;1.00;;;;;;4998956;28;20460;-75
2022/04/07 02:15:39;;;;;;;2.30;2.13;;;10.70;1.00;;;;;;4994351;28;20196;-75
2022/04/07 02:18:05;;;;;;;4.30;2.20;;;10.70;1.00;;;;;;4994230;28;20453;-75
2022/04/07 02:20:30;;;;;;;1.80;1.50;;;10.70;1.00;;;;;;4994107;28;20188;-76
2022/04/07 02:22:57;;;;;;;2.77;2.10;;;;;;;;;;4993938;28;20280;-71
2022/04/07 02:25:27;;;;;;;2.43;2.23;;;10.70;1.00;;;;;;4994195;28;20182;-71
2022/04/07 02:27:53;;;;;;;2.50;2.30;;;10.70;1.00;;;;;;4993875;28;20420;-71
2022/04/07 02:30:19;;;;;;;3.53;2.27;;;;;;;;;;4994082;28;20503;-71
2022/04/07 02:32:45;;;;;;;2.53;2.33;;;10.70;1.00;;;;;;4993660;28;20193;-71
2022/04/07 02:35:12;;;;;;;2.60;2.40;;;;;;;;;;4993415;28;20407;-71
2022/04/07 02:37:38;;;;;;;2.33;2.20;;;10.70;1.00;;;;;;4993812;28;20221;-71
2022/04/07 02:40:05;;;;;;;3.93;2.13;;;10.60;1.00;;;;;;4993843;28;20531;-71
2022/04/07 02:42:31;;;;;;;2.50;2.30;;;;;;;;;;4993529;28;20427;-71
2022/04/07 02:44:57;;;;;;;3.07;2.60;;;;;;;;;;4993561;28;20408;-71
2022/04/07 02:47:30;;;;;;;3.00;2.70;;;10.50;1.00;;;;;;4993100;28;20908;-71
2022/04/07 02:49:56;;;;;;;3.30;2.60;;;10.50;1.00;;;;;;4993395;28;20403;-71
2022/04/07 02:52:22;;;;;;;2.70;2.37;;;;;;;;;;4992864;28;20499;-74
2022/04/07 02:54:47;;;;;;;6.33;2.73;;;10.40;1.00;;;;;;4993382;28;20228;-75
2022/04/07 02:57:13;;;;;;;2.90;2.50;;;10.40;1.00;;;;;;4993553;28;20397;-75
2022/04/07 02:59:39;;;;;;;1.80;1.70;;;;;;;;;;4993677;28;20205;-75
2022/04/07 03:02:05;;;;;;;2.03;1.83;;;10.40;1.00;;;;;;4993142;28;20416;-75
2022/04/07 03:04:31;;;;;;;1.83;1.73;;;10.40;1.00;;;;;;4993041;28;20503;-75
2022/04/07 03:06:56;;;;;;;3.60;1.67;;;;;;;;;;4993286;28;20187;-75
2022/04/07 03:09:22;;;;;;;2.53;2.10;;;10.30;1.00;;;;;;4993814;28;20184;-75
2022/04/07 03:11:48;;;;;;;2.40;2.20;;;;;;;;;;4992958;28;20424;-75
2022/04/07 03:14:15;;;;;;;2.10;2.00;;;10.30;1.00;;;;;;5001639;28;20185;-75
2022/04/07 03:16:41;;;;;;;3.03;1.97;;;10.20;1.00;;;;;;4993361;28;20419;-75
2022/04/07 03:19:07;;;;;;;2.10;2.00;;;;;;;;;;4992625;28;20417;-75
2022/04/07 03:21:33;;;;;;;1.70;1.60;;;10.30;1.00;;;;;;4993074;28;20456;-75
2022/04/07 03:23:58;;;;;;;2.30;2.10;;;10.30;1.00;;;;;;4993219;28;20521;-71
2022/04/07 03:26:24;;;;;;;2.23;1.80;;;10.30;1.00;;;;;;4993312;28;20181;-71
2022/04/07 03:28:49;;;;;;;5.27;1.50;;;10.40;1.00;;;;;;4992997;28;20550;-71
2022/04/07 03:31:15;;;;;;;1.70;1.60;;;10.40;1.00;;;;;;4993345;28;20205;-71
2022/04/07 03:33:41;;;;;;;1.80;1.70;;;10.40;1.00;;;;;;4992832;28;20181;-71
2022/04/07 03:36:06;;;;;;;1.40;1.30;;;10.40;1.00;;;;;;4993158;28;20211;-71
2022/04/07 03:38:32;;;;;;;1.30;1.20;;;10.60;1.00;;;;;;4993585;28;20181;-75
2022/04/07 03:40:58;;;;;;;3.10;1.53;;;10.50;1.00;;;;;;4993339;28;20181;-75
2022/04/07 03:43:24;;;;;;;3.10;1.40;;;10.60;1.00;;;;;;4992926;28;20475;-75
2022/04/07 03:45:49;;;;;;;1.10;1.07;;;10.60;1.00;;;;;;4992751;28;20666;-78
2022/04/07 03:48:15;;;;;;;1.57;1.30;;;10.60;1.00;;;;;;4992823;28;20192;-75
2022/04/07 03:50:41;;;;;;;1.10;1.10;;;10.60;1.00;;;;;;4993356;28;20195;-75
2022/04/07 03:53:07;;;;;;;1.40;1.30;;;10.60;1.00;;;;;;4993074;28;20683;-71
2022/04/07 03:55:33;;;;;;;1.47;1.37;;;10.50;1.00;;;;;;4992765;28;20433;-71
2022/04/07 03:57:58;;;;;;;1.93;1.70;;;10.50;1.00;;;;;;4993013;28;20440;-71
2022/04/07 04:00:26;;;;;;;1.60;1.50;;;10.60;1.00;;;;;;4992754;28;20205;-71
2022/04/07 04:02:51;;;;;;;1.40;1.40;;;10.60;1.00;;;;;;4993075;28;20193;-71
2022/04/07 04:05:18;;;;;;;1.97;1.70;;;;;;;;;;4992683;28;20434;-71
2022/04/07 04:07:43;;;;;;;1.30;1.20;;;10.60;1.00;;;;;;4992957;28;20213;-71
2022/04/07 04:10:10;;;;;;;1.77;1.67;;;;;;;;;;4993343;28;20392;-75
2022/04/07 04:12:35;;;;;;;4.30;1.70;;;10.60;1.00;;;;;;4997916;28;20268;-75
2022/04/07 04:15:01;;;;;;;1.10;1.10;;;10.60;1.00;;;;;;4995037;28;20512;-75
2022/04/07 04:17:31;;;;;;;1.40;1.30;;;10.70;1.00;;;;;;4992919;28;20793;-75
2022/04/07 04:19:57;;;;;;;1.80;1.37;;;10.70;1.00;;;;;;4992858;28;20216;-75
2022/04/07 04:22:22;;;;;;;2.53;1.20;;;10.70;1.00;;;;;;4992541;28;20558;-75
2022/04/07 04:24:48;;;;;;;1.23;1.20;;;10.80;1.00;;;;;;4992657;28;20838;-72
2022/04/07 04:27:14;;;;;;;2.20;1.30;;;10.80;1.00;;;;;;4992623;28;20645;-71
2022/04/07 04:29:43;;;;;;;3.13;1.30;;;10.80;1.00;;;;;;4992837;28;20189;-71
2022/04/07 04:32:10;;;;;;;2.03;1.00;;;10.80;1.00;;;;;;4995858;28;20524;-71
2022/04/07 04:34:35;;;;;;;2.70;1.30;;;10.70;1.00;;;;;;4995990;28;20943;-71
2022/04/07 04:37:02;;;;;;;2.00;1.10;;;10.80;1.00;;;;;;4995824;28;20517;-71
2022/04/07 04:39:28;;;;;;;1.30;1.20;;;10.80;1.00;;;;;;4996101;28;20185;-75
2022/04/07 04:41:54;;;;;;;1.00;1.00;;;;;;;;;;4996499;28;20400;-75
2022/04/07 04:44:20;;;;;;;1.20;1.10;;;10.80;1.00;;;;;;4995354;28;20177;-75
2022/04/07 04:46:46;;;;;;;1.30;1.20;;;;;;;;;;4995741;28;20440;-75
2022/04/07 04:49:11;;;;;;;1.67;1.00;;;10.80;1.00;;;;;;4995622;28;20529;-75
2022/04/07 04:51:37;;;;;;;1.20;1.10;;;;;;;;;;4996145;28;20520;-75
2022/04/07 04:54:03;;;;;;;3.73;1.10;;;10.70;1.00;;;;;;4995872;28;20216;-75
2022/04/07 04:56:29;;;;;;;2.87;1.00;;;;;;;;;;4995670;28;20428;-75
2022/04/07 04:58:57;;;;;;;1.53;1.40;;;10.80;1.00;;;;;;4995679;28;20185;-77
2022/04/07 05:01:23;;;;;;;2.90;1.53;;;10.70;1.00;;;;;;4994906;28;21009;-82
2022/04/07 05:03:49;;;;;;;1.50;1.40;;;;;;;;;;4995429;28;20547;-82
2022/04/07 05:06:15;;;;;;;1.33;1.23;;;;;;;;;;4995255;28;20462;-82
2022/04/07 05:08:40;;;;;;;3.37;1.37;;;10.70;1.00;;;;;;4996145;28;20408;-82
2022/04/07 05:11:06;;;;;;;1.80;1.70;;;10.60;1.00;;;;;;4987362;28;20953;-81
2022/04/07 05:13:32;;;;;;;1.90;1.80;;;;;;;;;;4995328;28;20256;-84
2022/04/07 05:15:58;;;;;;;1.80;1.70;;;;;;;;;;4995254;28;20217;-82
2022/04/07 05:18:24;;;;;;;2.43;1.47;;;;;;;;;;4995487;28;20449;-81
2022/04/07 05:20:50;;;;;;;4.77;1.60;;;;;;;;;;4995573;28;20446;-82
2022/04/07 05:23:17;;;;;;;1.73;1.63;;;;;;;;;;4995004;28;20521;-81
2022/04/07 05:25:43;;;;;;;1.60;1.50;;;;;;;;;;4995385;28;20515;-81
2022/04/07 05:28:09;;;;;;;2.00;1.60;;;;;;;;;;4993553;28;20440;-81
2022/04/07 05:30:35;;;;;;;1.40;1.30;;;;;;;;;;4994734;28;20425;-82
2022/04/07 05:33:01;;;;;;;1.27;1.17;;;;;;;;;;4993870;28;20819;-82
2022/04/07 05:35:28;;;;;;;3.17;1.63;;;;;;;;;;4994946;28;20432;-81
2022/04/07 05:38:02;;;;;;;2.00;0.87;;;10.70;1.00;;;;;;4993926;28;20475;-81
2022/04/07 05:40:28;;;;;;;1.10;1.10;;;10.80;1.00;;;;;;5009508;28;20425;-82
2022/04/07 05:42:55;;;;;;;1.00;1.00;;;10.80;1.00;;;;;;4993759;28;20470;-82
2022/04/07 05:45:21;;;;;;;1.07;0.90;;;11.00;1.00;;;;;;5009453;28;20425;-82
2022/04/07 05:47:47;;;;;;;0.83;0.83;;;11.00;1.00;;;;;;4994428;28;20429;-81
2022/04/07 05:50:13;;;;;;;1.10;1.00;;;11.00;1.00;;;;;;4994748;28;20941;-81
2022/04/07 05:52:39;;;;;;;1.03;1.03;;;11.10;1.00;;;;;;4994798;28;20425;-82
2022/04/07 05:55:05;;;;;;;1.10;1.00;;;11.30;1.00;;;;;;4995256;28;20205;-81
2022/04/07 05:57:31;;;;;;;0.83;0.83;;;11.40;1.00;;;;;;4994005;28;20555;-81
2022/04/07 06:00:12;;;;;;;0.70;0.70;;;11.30;1.00;;;;;;4994668;28;20482;-75
2022/04/07 06:02:41;;;;;;;0.70;0.70;;;11.40;1.00;;;;;;4993727;28;20615;-75
2022/04/07 06:05:08;;;;;;;0.80;0.60;;;11.40;1.00;;;;;;4994101;28;20862;-75
2022/04/07 06:07:34;;;;;;;0.97;0.60;;;11.40;1.00;;;;;;4994334;28;20432;-75
2022/04/07 06:10:00;;;;;;;0.53;0.53;;;11.40;1.00;;;;;;4994889;28;20755;-75
2022/04/07 06:12:25;;;;;;;0.60;0.60;;;11.40;1.00;;;;;;4998350;28;20498;-75
2022/04/07 06:14:51;;;;;;;1.53;0.60;;;11.40;1.00;;;;;;4998277;28;20645;-75
2022/04/07 06:17:16;;;;;;;0.60;0.60;;;11.30;1.00;;;;;;4994148;28;20185;-75
2022/04/07 06:19:42;;;;;;;1.13;0.60;;;11.40;1.00;;;;;;4994272;28;20266;-75
2022/04/07 06:22:08;;;;;;;0.93;0.80;;;11.40;1.00;;;;;;4993741;28;20212;-74
2022/04/07 06:24:34;;;;;;;0.60;0.60;;;11.30;1.00;;;;;;4994515;28;20236;-75
2022/04/07 06:27:00;;;;;;;0.60;0.60;;;11.10;1.00;;;;;;4993903;28;20545;-75
2022/04/07 06:29:25;;;;;;;0.73;0.73;;;11.10;1.00;;;;;;4993703;28;20472;-75
2022/04/07 06:31:52;;;;;;;0.80;0.60;;;11.10;1.00;;;;;;4994132;28;20636;-75
2022/04/07 06:34:18;;;;;;;1.47;1.00;;;11.20;1.00;;;;;;4993866;28;20716;-75
2022/04/07 06:36:43;;;;;;;2.60;1.17;;;11.20;1.00;;;;;;4994041;28;20496;-75
2022/04/07 06:39:12;;;;;;;1.00;0.90;;;11.10;1.00;;;;;;4993669;28;20527;-74
2022/04/07 06:41:38;;;;;;;0.80;0.80;;;11.20;1.00;;;;;;4993433;28;20181;-75
2022/04/07 06:44:03;;;;;;;0.67;0.67;;;11.20;1.00;;;;;;4992946;28;20464;-75
2022/04/07 06:46:29;;;;;;;1.63;0.90;;;11.20;1.00;;;;;;4993538;28;20257;-75
2022/04/07 06:48:55;;;;;;;5.70;2.43;;;11.20;1.00;;;;;;4985158;28;20769;-75
2022/04/07 06:51:20;;;;;;;2.00;0.70;;;11.20;1.00;;;;;;4992310;28;20185;-75
2022/04/07 06:53:46;;;;;;;1.53;0.70;;;11.30;1.00;;;;;;4992577;28;20209;-75
2022/04/07 06:56:11;;;;;;;0.70;0.50;;;11.30;1.00;;;;;;4993674;28;20185;-76
2022/04/07 06:58:37;;;;;;;1.47;0.73;;;11.20;1.00;;;;;;4993041;28;20187;-75
2022/04/07 07:01:02;;;;;;;2.50;1.00;;;11.20;1.00;;;;;;4993672;28;20197;-75
2022/04/07 07:03:28;;;;;;;1.20;0.70;;;11.10;1.00;;;;;;4992220;28;20459;-76
2022/04/07 07:05:58;;;;;;;1.10;0.70;;;;;;;;;;4993606;28;20178;-75
2022/04/07 07:08:24;;;;;;;0.60;0.60;;;11.00;1.00;;;;;;4993288;28;20198;-75
2022/04/07 07:10:51;;;;;;;1.10;0.70;;;10.90;1.00;;;;;;4993534;28;20424;-72
2022/04/07 07:13:22;;;;;;;1.83;0.70;;;10.80;1.00;;;;;;4994092;28;20439;-72
2022/04/07 07:15:49;;;;;;;0.70;0.70;;;10.90;1.00;;;;;;4993345;28;20418;-72
2022/04/07 07:18:14;;;;;;;1.60;0.50;;;10.90;1.00;;;;;;4993325;28;20431;-72
2022/04/07 07:20:40;;;;;;;1.47;0.70;;;10.90;1.00;;;;;;4992500;28;20407;-71
2022/04/07 07:23:07;;;;;;;0.80;0.77;;;10.90;1.00;;;;;;4993202;28;20562;-71
2022/04/07 07:25:34;;;;;;;2.73;0.70;;;11.00;1.00;;;;;;4985840;28;20177;-72
2022/04/07 07:28:00;;;;;;;0.53;0.53;;;11.00;1.00;;;;;;4993078;28;20475;-72
2022/04/07 07:30:27;;;;;;;1.00;0.50;;;11.00;1.00;;;;;;4992423;28;20516;-72
2022/04/07 07:32:54;;;;;;;3.10;1.00;;;11.10;1.00;;;;;;4992961;28;20558;-72
2022/04/07 07:35:20;;;;;;;0.73;0.63;;;11.10;1.00;;;;;;4992694;28;20407;-72
2022/04/07 07:37:52;;;;;;;2.33;0.70;;;11.20;1.00;;;;;;4993179;28;20439;-72
2022/04/07 07:40:18;;;;;;;5.60;3.03;;;;;;;;;;4987162;28;20790;-72
2022/04/07 07:42:44;;;;;;;2.77;0.80;;;11.30;1.00;;;;;;4991726;28;20542;-72
2022/04/07 07:45:10;;;;;;;1.60;0.70;;;11.20;1.00;;;;;;4992542;28;20523;-72
2022/04/07 07:47:36;;;;;;;1.03;0.70;;;;;;;;;;4992436;28;20414;-72
2022/04/07 07:50:03;;;;;;;0.77;0.60;;;11.10;1.00;;;;;;4981780;28;20393;-71
2022/04/07 07:52:28;;;;;;;1.17;0.70;;;11.10;1.00;;;;;;4991422;28;20531;-72
2022/04/07 07:54:57;;;;;;;2.70;0.80;;;11.10;1.00;;;;;;4992867;28;20531;-73
2022/04/07 07:57:22;;;;;;;1.67;0.70;;;11.10;1.00;;;;;;4989314;28;20579;-75
2022/04/07 07:59:50;;;;;;;2.83;0.60;;;11.10;1.00;;;;;;4991622;28;20483;-75
2022/04/07 08:02:16;;;;;;;1.40;0.60;;;11.10;1.00;;;;;;4992771;28;20220;-75
2022/04/07 08:04:42;;;;;;;1.00;0.70;;;11.10;1.00;;;;;;4994828;28;20409;-75
2022/04/07 08:07:08;;;;;;;0.63;0.57;;;11.10;1.00;;;;;;4996086;28;20420;-75
2022/04/07 08:09:34;;;;;;;1.10;0.60;;;;;;;;;;4996068;28;20259;-75
2022/04/07 08:11:59;;;;;;;0.50;0.50;;;11.00;1.00;;;;;;4995934;28;20188;-75
2022/04/07 08:14:25;;;;;;;1.73;0.60;;;11.10;1.00;;;;;;4996651;28;20413;-76
2022/04/07 08:16:51;;;;;;;1.20;0.50;;;11.20;1.00;;;;;;4995786;28;20177;-75
2022/04/07 08:19:17;;;;;;;0.60;0.60;;;;;;;;;;4995596;28;20184;-75
2022/04/07 08:21:43;;;;;;;0.50;0.50;;;11.10;1.00;;;;;;4996409;28;20178;-75
2022/04/07 08:24:16;;;;;;;3.00;0.53;;;11.20;1.00;;;;;;4996284;28;20959;-75
2022/04/07 08:26:42;;;;;;;3.50;0.70;;;11.20;1.00;;;;;;4996707;28;20197;-74
2022/04/07 08:29:08;;;;;;;1.07;0.67;;;11.20;1.00;;;;;;4995930;28;20431;-75
2022/04/07 08:31:34;;;;;;;2.60;0.60;;;;;;;;;;4996246;28;20422;-75
2022/04/07 08:34:02;;;;;;;1.07;0.70;;;11.30;1.00;;;;;;4995795;28;20409;-75
2022/04/07 08:36:39;;;;;;;0.40;0.40;;;11.30;1.00;;;;;;4992882;28;20428;-76
2022/04/07 08:39:37;;;;;;;0.70;0.70;;;11.20;1.00;;;;;;4996773;28;20908;-75
2022/04/07 08:42:05;;;;;;;1.37;0.60;;;11.20;1.00;;;;;;4997139;28;20429;-72
2022/04/07 08:44:32;;;;;;;4.13;0.67;;;11.20;1.00;;;;;;4996360;28;20821;-73
2022/04/07 08:46:59;;;;;;;1.33;0.67;;;11.20;1.00;;;;;;4991492;28;20916;-72
2022/04/07 08:49:28;;;;;;;2.17;0.70;;;11.30;1.00;;;;;;4995522;28;20885;-72
2022/04/07 08:51:54;;;;;;;0.50;0.50;;;11.30;1.00;;;;;;4997123;28;20928;-72
2022/04/07 08:54:21;;;;;;;2.50;0.60;;;11.30;1.00;;;;;;4996752;28;20415;-72
2022/04/07 08:56:50;;;;;;;0.97;0.60;;;11.30;1.00;;;;;;4996688;28;20210;-72
2022/04/07 08:59:16;;;;;;;1.10;0.63;;;11.40;1.00;;;;;;4996720;28;20419;-72
2022/04/07 09:01:42;;;;;;;0.80;0.57;;;11.40;1.00;;;;;;4996202;28;20532;-72
2022/04/07 09:04:14;;;;;;;0.50;0.50;;;11.40;1.00;;;;;;4996455;28;20810;-73
2022/04/07 09:06:41;;;;;;;0.60;0.50;;;11.50;1.00;;;;;;4995627;28;20425;-74
2022/04/07 09:09:19;;;;;;;0.60;0.60;;;11.50;1.00;;;;;;4995977;28;20468;-72
2022/04/07 09:19:08;;;;;;;0.40;0.40;;;11.60;1.00;;;;;;4996155;28;20766;-77
2022/04/07 09:21:44;;;;;;;0.60;0.57;;;11.60;1.00;;;;;;4988510;28;20457;-77
2022/04/07 09:24:26;;;;;;;0.67;0.60;;;11.60;1.00;;;;;;4996025;28;20460;-76
2022/04/07 09:27:25;;;;;;;0.80;0.57;;;11.80;1.00;;;;;;4996233;28;20411;-76
2022/04/07 09:29:56;;;;;;;0.40;0.40;;;11.80;1.00;;;;;;4976818;28;20401;-76
2022/04/07 09:36:10;;;;;;;0.60;0.53;;;11.90;1.00;;;;;;4995265;28;20432;-77
2022/04/07 09:38:58;;;;;;;1.03;0.60;;;11.80;1.00;;;;;;4995884;28;20504;-77
2022/04/07 09:45:21;;;;;;;1.73;0.60;;;12.00;1.00;;;;;;4995494;28;20424;-77
2022/04/07 09:48:31;;;;;;;0.40;0.40;;;11.90;1.00;;;;;;4995940;28;20408;-77
2022/04/07 09:51:38;;;;;;;0.63;0.50;;;12.00;1.00;;;;;;4987005;28;20524;-77
2022/04/07 09:54:18;;;;;;;0.50;0.40;;;12.10;1.00;;;;;;4987955;28;20974;-75
2022/04/07 09:57:09;;;;;;;0.40;0.40;;;12.10;1.00;;;;;;4995970;28;20495;-78
2022/04/07 10:06:20;;;;;;;0.50;0.50;;;12.00;1.00;;;;;;4995110;28;20375;-80
2022/04/07 10:12:09;;;;;;;0.73;0.50;;;11.90;1.00;;;;;;4987017;28;20422;-83
2022/04/07 10:14:44;;;;;;;1.83;0.70;;;;;;;;;;4993646;28;20481;-82
2022/04/07 10:20:54;;;;;;;0.60;0.60;;;;;;;;;;4993994;28;20391;-85
2022/04/07 10:30:08;;;;;;;0.60;0.50;;;12.00;1.00;;;;;;4987365;28;20370;-84
2022/04/07 10:35:56;;;;;;;1.23;0.57;;;12.10;1.00;;;;;;4994949;28;20873;-83
2022/04/07 10:42:25;;;;;;;1.13;0.60;;;12.20;1.00;;;;;;4995403;28;20208;-81
2022/04/07 10:45:29;;;;;;;1.00;0.60;;;12.30;1.00;;;;;;4994390;28;20402;-79
2022/04/07 10:51:18;;;;;;;1.43;0.70;;;12.30;1.00;;;;;;4993516;28;20512;-78
2022/04/07 10:53:53;;;;;;;0.90;0.60;;;12.30;1.00;;;;;;4994158;28;20443;-78
2022/04/07 10:56:24;;;;;;;0.60;0.60;;;12.40;1.00;;;;;;4989454;28;20890;-77
2022/04/07 10:58:54;;;;;;;0.73;0.60;;;12.40;1.00;;;;;;4993610;28;20512;-84
2022/04/07 11:01:31;;;;;;;3.23;1.20;;;12.40;1.00;;;;;;4993177;28;20423;-83
2022/04/07 11:04:16;;;;;;;1.13;0.60;;;12.50;1.00;;;;;;4993546;28;20420;-84
2022/04/07 11:07:18;;;;;;;2.00;0.80;;;12.40;1.00;;;;;;5008645;28;20400;-82
2022/04/07 11:09:57;;;;;;;0.83;0.60;;;12.50;1.00;;;;;;4993465;28;20428;-82
2022/04/07 11:12:43;;;;;;;0.53;0.50;;;12.40;1.00;;;;;;4993485;28;20529;-83
2022/04/07 11:15:17;;;;;;;3.60;0.70;;;12.40;1.00;;;;;;4983368;28;20413;-84
2022/04/07 11:17:46;;;;;;;0.50;0.50;;;;;;;;;;4993143;28;20495;-84
2022/04/07 11:20:18;;;;;;;1.57;0.50;;;12.60;1.00;;;;;;4992676;28;20428;-86
2022/04/07 11:22:58;;;;;;;0.80;0.70;;;12.70;1.00;;;;;;5009412;28;20403;-87
2022/04/07 11:25:35;;;;;;;0.50;0.50;;;;;;;;;;4993639;28;21873;-86
2022/04/07 11:28:07;;;;;;;0.60;0.50;;;12.80;1.00;;;;;;4993837;28;20417;-81
2022/04/07 11:31:00;;;;;;;0.60;0.60;;;13.00;1.00;;;;;;4985833;28;20395;-83
2022/04/07 11:33:26;;;;;;;2.13;0.67;;;;;;;;;;4992377;28;20556;-83
2022/04/07 11:35:58;;;;;;;0.50;0.47;;;13.00;1.00;;;;;;4993105;28;20396;-82
2022/04/07 11:38:29;;;;;;;0.67;0.67;;;13.10;1.00;;;;;;4993238;28;20424;-78
2022/04/07 11:40:58;;;;;;;2.10;0.50;;;13.10;1.00;;;;;;4996804;28;20399;-78
2022/04/07 11:43:24;;;;;;;0.60;0.60;;;;;;;;;;4997215;28;20866;-72
2022/04/07 11:45:50;;;;;;;10.23;0.90;;;;;;;;;;4996947;28;20413;-73
2022/04/07 11:48:16;;;;;;;1.00;0.60;;;;;;;;;;4994330;28;20410;-72
2022/04/07 11:50:42;;;;;;;0.40;0.40;;;;;;;;;;4996373;28;20439;-72
2022/04/07 11:53:08;;;;;;;0.40;0.40;;;13.10;1.00;;;;;;4996431;28;20447;-72
2022/04/07 11:55:34;;;;;;;0.40;0.40;;;;;;;;;;4996820;28;20745;-71
2022/04/07 11:58:00;;;;;;;0.40;0.40;;;;;;;;;;4983750;28;20188;-72
2022/04/07 12:00:32;;;;;;;0.70;0.40;;;13.30;1.00;;;;;;4995662;28;20959;-72
2022/04/07 12:03:02;;;;;;;0.67;0.40;;;13.40;1.00;;;;;;4996723;28;20435;-74
2022/04/07 12:05:30;;;;;;;0.40;0.40;;;13.50;1.00;;;;;;4996743;28;20778;-72
2022/04/07 12:07:56;;;;;;;0.97;0.40;;;;;;;;;;4996329;28;20403;-72
2022/04/07 12:10:22;;;;;;;0.70;0.40;;;;;;;;;;4995002;28;20857;-72
2022/04/07 12:12:48;;;;;;;1.10;0.50;;;;;;;;;;5000392;28;20435;-78
2022/04/07 12:15:16;;;;;;;0.40;0.40;;;13.70;1.00;;;;;;4996500;28;20443;-77
2022/04/07 12:18:01;;;;;;;1.13;0.50;;;13.80;1.00;;;;;;4996268;28;20428;-78
2022/04/07 12:20:27;;;;;;;0.40;0.40;;;13.90;1.00;;;;;;4996387;28;20407;-79
2022/04/07 12:23:11;;;;;;;0.40;0.40;;;14.00;1.00;;;;;;4996535;28;20435;-78
2022/04/07 12:25:39;;;;;;;1.30;0.50;;;14.10;1.00;;;;;;4996464;28;20387;-78
2022/04/07 12:28:11;;;;;;;1.80;0.40;;;14.20;1.00;;;;;;4996649;28;20413;-72
2022/04/07 12:30:48;;;;;;;0.40;0.40;;;14.30;1.00;;;;;;4995697;28;20418;-75
2022/04/07 12:33:37;;;;;;;0.80;0.40;;;14.40;1.00;;;;;;4996195;28;20926;-72
2022/04/07 12:36:03;;;;;;;0.50;0.40;;;;;;;;;;4995883;28;20827;-73
2022/04/07 12:38:29;;;;;;;0.67;0.40;;;;;;;;;;4996062;28;20730;-72
2022/04/07 12:40:55;;;;;;;0.40;0.40;;;;;;;;;;4995480;28;20479;-72
2022/04/07 12:43:49;;;;;;;0.40;0.40;;;14.90;1.00;;;;;;4996095;28;20415;-71
2022/04/07 12:46:15;;;;;;;0.40;0.40;;;;;;;;;;4989444;28;21006;-72
2022/04/07 12:49:05;;;;;;;0.43;0.40;;;14.90;1.00;;;;;;4995617;28;20413;-73
2022/04/07 12:51:32;;;;;;;0.60;0.40;;;15.00;1.00;;;;;;4994168;28;20425;-72
2022/04/07 12:54:08;;;;;;;0.40;0.40;;;15.00;1.00;;;;;;4996044;28;20880;-84
2022/04/07 12:56:35;;;;;;;1.13;0.40;;;;;;;;;;4996276;28;20471;-80
2022/04/07 12:59:03;;;;;;;1.93;0.40;;;15.10;1.00;;;;;;4994912;28;20419;-81
2022/04/07 13:01:29;;;;;;;1.43;0.40;;;;;;;;;;4995546;28;20519;-82
2022/04/07 13:03:56;;;;;;;0.50;0.40;;;;;;;;;;4995731;28;20409;-79
2022/04/07 13:06:23;;;;;;;0.50;0.43;;;;;;;;;;4996395;28;20423;-83
2022/04/07 13:08:49;;;;;;;1.77;0.50;;;;;;;;;;4995742;28;20432;-81
2022/04/07 13:11:33;;;;;;;0.50;0.40;;;14.60;1.00;;;;;;4995611;28;20412;-81
2022/04/07 13:14:00;;;;;;;1.63;0.60;;;14.20;1.00;;;;;;5000042;28;20439;-78
2022/04/07 13:16:26;;;;;;;1.40;0.60;;;;;;;;;;4995233;28;20408;-78
2022/04/07 13:18:52;;;;;;;3.73;0.80;;;;;;;;;;4994465;28;20466;-79
2022/04/07 13:21:18;;;;;;;2.97;0.90;;;;;;;;;;4995016;28;20426;-75
2022/04/07 13:23:44;;;;;;;2.50;0.68;;;;;;;;;;4995672;28;20839;-77
2022/04/07 13:26:10;;;;;;;748.10;273.73;;;;;;;;;;4994259;28;20456;-76
2022/04/07 13:28:36;;;;;;;6.93;1.37;;;;;;;;;;4995264;28;20475;-79
2022/04/07 13:31:03;;;;;;;196.90;117.97;;;;;;;;;;4995414;28;20427;-79
2022/04/07 13:33:29;;;;;;;119.97;66.97;;;;;;;;;;4995190;28;20514;-81
2022/04/07 13:35:55;;;;;;;3.33;1.43;;;;;;;;;;4995028;28;20531;-81
2022/04/07 13:38:21;;;;;;;2.90;0.90;;;11.50;1.00;;;;;;4993976;28;20515;-81
2022/04/07 13:40:50;;;;;;;648.20;274.83;;;11.70;1.00;;;;;;4993272;28;20429;-81
2022/04/07 13:43:16;;;;;;;5.33;1.20;;;11.80;1.00;;;;;;4994946;28;20452;-81
2022/04/07 13:45:46;;;;;;;9.43;0.90;;;;;;;;;;5009911;28;20413;-79
2022/04/07 13:48:12;;;;;;;2.20;0.90;;;;;;;;;;4994761;28;21002;-80
2022/04/07 13:50:44;;;;;;;1.70;0.60;;;12.10;1.00;;;;;;4994791;28;20519;-79
2022/04/07 13:53:10;;;;;;;2.50;1.13;;;12.10;1.00;;;;;;4994012;28;20447;-78
2022/04/07 13:55:36;;;;;;;1.03;0.67;;;12.30;1.00;;;;;;4994868;28;20416;-80
2022/04/07 13:58:01;;;;;;;2.40;0.80;;;13.60;1.00;;;;;;4993358;28;20551;-81
2022/04/07 14:00:27;;;;;;;127.03;74.07;;;12.70;1.00;;;;;;4994914;28;20193;-82
2022/04/07 14:02:53;;;;;;;2.20;0.80;;;;;;;;;;4993069;28;20255;-82
2022/04/07 14:05:19;;;;;;;0.50;0.50;;;;;;;;;;4994742;28;20213;-82
2022/04/07 14:07:45;;;;;;;249.10;75.80;;;;;;;;;;4992756;28;20437;-82
2022/04/07 14:10:12;;;;;;;0.70;0.50;;;;;;;;;;4994564;28;20536;-82
2022/04/07 14:12:38;;;;;;;1.13;0.60;;;13.10;1.00;;;;;;4997682;28;20496;-82